Time;durP1;ratioP1;P1;durP2;ratioP2;P2;SDS_P1;SDS_P2;PMS_P1;PMS_P2;Temp;Humidity;BMP_temperature;BMP_pressure;BME280_temperature;BME280_humidity;BME280_pressure;Samples;Min_cycle;Max_cycle;Signal;HPM_P1;HPM_P2
2023/01/25 00:01:51;;;;;;;3.87;3.60;;;18.60;36.80;;;;;;4946962;28;20236;-86
2023/01/25 00:04:20;;;;;;;3.33;3.13;;;18.60;36.90;;;;;;4943503;28;20226;-88
2023/01/25 00:06:46;;;;;;;3.50;3.20;;;18.60;36.90;;;;;;4955858;28;20461;-87
2023/01/25 00:09:13;;;;;;;3.17;2.97;;;18.60;36.80;;;;;;4947945;28;20466;-86
2023/01/25 00:11:38;;;;;;;3.57;3.37;;;18.60;36.80;;;;;;4925842;28;20552;-89
2023/01/25 00:14:05;;;;;;;3.63;3.43;;;18.60;36.80;;;;;;4942893;28;20437;-89
2023/01/25 00:16:31;;;;;;;3.77;3.47;;;18.60;36.80;;;;;;4932954;28;21533;-88
2023/01/25 00:18:56;;;;;;;3.60;3.30;;;18.60;36.90;;;;;;4941403;28;20481;-86
2023/01/25 00:21:24;;;;;;;3.67;3.47;;;18.70;36.90;;;;;;4954982;28;20455;-86
2023/01/25 00:23:50;;;;;;;4.03;3.73;;;18.60;36.90;;;;;;4946142;28;20243;-88
2023/01/25 00:26:16;;;;;;;3.70;3.40;;;18.60;36.80;;;;;;4936898;28;20495;-88
2023/01/25 00:28:42;;;;;;;5.07;3.23;;;18.60;36.80;;;;;;4942914;28;20471;-86
2023/01/25 00:31:14;;;;;;;3.50;3.30;;;18.60;36.80;;;;;;4952084;28;20987;-86
2023/01/25 00:33:50;;;;;;;3.77;3.57;;;18.60;36.90;;;;;;4958949;28;20232;-87
2023/01/25 00:36:33;;;;;;;3.53;3.33;;;18.60;36.80;;;;;;4929672;28;20742;-91
2023/01/25 00:38:59;;;;;;;3.33;3.13;;;18.60;36.80;;;;;;4950594;28;20478;-87
2023/01/25 00:41:25;;;;;;;3.40;3.10;;;18.60;36.80;;;;;;4942888;28;20466;-86
2023/01/25 00:43:50;;;;;;;3.73;3.53;;;18.60;36.90;;;;;;4935870;28;20451;-87
2023/01/25 00:46:17;;;;;;;3.80;3.60;;;18.60;36.80;;;;;;4949992;28;20225;-87
2023/01/25 00:48:43;;;;;;;3.17;2.97;;;18.60;36.80;;;;;;4947534;28;20229;-86
2023/01/25 00:51:09;;;;;;;3.47;3.23;;;18.60;36.80;;;;;;4951460;28;20503;-86
2023/01/25 00:53:35;;;;;;;3.80;3.50;;;18.60;36.80;;;;;;4943341;28;20867;-88
2023/01/25 00:56:01;;;;;;;3.20;3.00;;;18.60;36.80;;;;;;4953904;28;20433;-87
2023/01/25 00:58:26;;;;;;;3.90;3.60;;;18.60;36.80;;;;;;4942491;28;20651;-86
2023/01/25 01:00:53;;;;;;;3.30;3.10;;;18.60;36.80;;;;;;4952916;28;20251;-87
2023/01/25 01:03:19;;;;;;;3.50;3.30;;;18.60;36.80;;;;;;4952600;28;20290;-91
2023/01/25 01:05:44;;;;;;;3.47;3.27;;;18.60;36.80;;;;;;4941986;28;21330;-88
2023/01/25 01:08:11;;;;;;;4.23;3.93;;;18.60;36.80;;;;;;4939184;28;20960;-87
2023/01/25 01:10:37;;;;;;;3.60;3.40;;;18.60;36.80;;;;;;4947555;28;20257;-87
2023/01/25 01:13:02;;;;;;;3.60;3.30;;;18.60;36.80;;;;;;4948148;28;20559;-90
2023/01/25 01:15:28;;;;;;;3.23;3.03;;;18.60;36.80;;;;;;4944131;28;20239;-87
2023/01/25 01:17:54;;;;;;;3.57;3.37;;;18.60;36.80;;;;;;4940766;28;20307;-86
2023/01/25 01:20:19;;;;;;;3.20;3.00;;;18.60;36.80;;;;;;4947403;28;20231;-88
2023/01/25 01:22:45;;;;;;;3.63;3.43;;;18.60;36.80;;;;;;4959170;28;20437;-87
2023/01/25 01:25:12;;;;;;;3.60;3.40;;;18.60;36.80;;;;;;4961556;28;20239;-87
2023/01/25 01:27:37;;;;;;;3.40;3.20;;;18.60;36.80;;;;;;4956223;28;20312;-86
2023/01/25 01:30:04;;;;;;;3.13;2.93;;;18.60;36.80;;;;;;4945376;28;20841;-87
2023/01/25 01:32:29;;;;;;;3.87;3.67;;;18.60;36.80;;;;;;4953264;28;20229;-86
2023/01/25 01:34:55;;;;;;;3.57;3.37;;;18.60;36.80;;;;;;4963114;28;20490;-89
2023/01/25 01:37:20;;;;;;;3.00;2.90;;;18.60;36.80;;;;;;4960828;28;20232;-86
2023/01/25 01:39:46;;;;;;;3.17;2.97;;;18.60;36.80;;;;;;4945168;28;20333;-86
2023/01/25 01:42:12;;;;;;;3.37;3.17;;;18.60;36.80;;;;;;4961937;28;20220;-87
2023/01/25 01:44:49;;;;;;;3.50;3.20;;;18.60;36.80;;;;;;4958077;28;20220;-88
2023/01/25 01:47:21;;;;;;;3.67;3.40;;;18.60;36.80;;;;;;4951056;28;20658;-87
2023/01/25 01:49:54;;;;;;;3.93;3.43;;;18.60;36.80;;;;;;4946749;28;20782;-86
2023/01/25 01:52:26;;;;;;;3.40;3.20;;;18.60;36.80;;;;;;4954630;28;20543;-87
2023/01/25 01:54:57;;;;;;;3.10;2.90;;;18.60;36.80;;;;;;4930240;28;20513;-87
2023/01/25 01:57:30;;;;;;;3.07;2.87;;;18.60;36.80;;;;;;4941982;28;20437;-91
2023/01/25 02:00:08;;;;;;;3.13;2.93;;;18.60;36.80;;;;;;4939171;28;20444;-86
2023/01/25 02:02:34;;;;;;;3.10;2.90;;;18.60;36.80;;;;;;4960302;28;20458;-88
2023/01/25 02:05:05;;;;;;;3.37;3.17;;;18.60;36.80;;;;;;4959328;28;20445;-89
2023/01/25 02:07:34;;;;;;;3.50;3.20;;;18.60;36.80;;;;;;4961257;28;20224;-87
2023/01/25 02:10:02;;;;;;;3.30;3.10;;;18.60;36.90;;;;;;4953471;28;20766;-87
2023/01/25 02:12:28;;;;;;;3.30;3.10;;;18.60;36.80;;;;;;4962466;28;20962;-86
2023/01/25 02:14:55;;;;;;;3.60;3.40;;;18.60;36.80;;;;;;4960042;28;20446;-87
2023/01/25 02:17:25;;;;;;;3.03;2.90;;;18.60;36.80;;;;;;4960982;28;20437;-87
2023/01/25 02:20:21;;;;;;;3.50;3.30;;;18.60;36.80;;;;;;4959295;28;20984;-86
2023/01/25 02:22:59;;;;;;;3.37;3.07;;;18.60;36.70;;;;;;4946016;28;20549;-89
2023/01/25 02:25:25;;;;;;;3.80;3.60;;;18.60;36.80;;;;;;4940896;28;20467;-92
2023/01/25 02:27:58;;;;;;;3.27;3.07;;;18.60;36.80;;;;;;4948165;28;20521;-87
2023/01/25 02:30:24;;;;;;;4.10;3.83;;;18.60;36.80;;;;;;4932751;28;20426;-88
2023/01/25 02:32:50;;;;;;;3.30;3.00;;;18.60;36.80;;;;;;4936704;28;20446;-87
2023/01/25 02:35:34;;;;;;;3.57;3.37;;;18.60;36.80;;;;;;4936754;28;20235;-90
2023/01/25 02:37:59;;;;;;;4.43;4.13;;;18.60;36.70;;;;;;4946982;28;20283;-91
2023/01/25 02:40:25;;;;;;;3.93;3.73;;;18.60;36.80;;;;;;4934107;28;20559;-86
2023/01/25 02:42:51;;;;;;;3.40;3.20;;;18.60;36.80;;;;;;4937261;28;20263;-87
2023/01/25 02:45:21;;;;;;;3.57;3.33;;;18.60;36.80;;;;;;4943569;28;20260;-90
2023/01/25 02:47:47;;;;;;;3.50;3.30;;;18.60;36.80;;;;;;4958556;28;20229;-87
2023/01/25 02:50:13;;;;;;;3.40;3.20;;;18.60;36.70;;;;;;4958229;28;20445;-85
2023/01/25 02:52:38;;;;;;;3.80;3.60;;;18.60;36.80;;;;;;4956447;28;23199;-87
2023/01/25 02:55:04;;;;;;;3.37;3.17;;;18.60;36.70;;;;;;4950148;28;20603;-86
2023/01/25 02:57:30;;;;;;;3.70;3.50;;;18.60;36.80;;;;;;4958438;28;20295;-87
2023/01/25 02:59:55;;;;;;;3.27;3.07;;;18.60;37.50;;;;;;4960330;28;20233;-86
2023/01/25 03:02:21;;;;;;;3.50;3.20;;;18.60;36.70;;;;;;4959597;28;20317;-89
2023/01/25 03:04:46;;;;;;;2.87;2.73;;;18.60;37.50;;;;;;4953391;28;20217;-86
2023/01/25 03:07:12;;;;;;;3.50;3.30;;;18.60;36.80;;;;;;4959117;28;20216;-88
2023/01/25 03:09:37;;;;;;;3.60;3.40;;;18.60;36.80;;;;;;4947561;28;20256;-86
2023/01/25 03:12:03;;;;;;;3.20;3.00;;;18.60;36.80;;;;;;4943274;28;20320;-87
2023/01/25 03:14:29;;;;;;;3.07;2.87;;;18.60;36.80;;;;;;4955279;28;20338;-87
2023/01/25 03:16:54;;;;;;;3.93;3.73;;;18.60;36.80;;;;;;4943595;28;20217;-86
2023/01/25 03:19:20;;;;;;;3.77;3.57;;;18.60;36.80;;;;;;4956230;28;20244;-88
2023/01/25 03:21:45;;;;;;;4.00;3.80;;;18.60;36.70;;;;;;4939023;28;20340;-89
2023/01/25 03:24:11;;;;;;;3.73;3.53;;;18.60;36.80;;;;;;4949424;28;20232;-88
2023/01/25 03:27:09;;;;;;;3.60;3.40;;;18.60;36.70;;;;;;4960152;28;20211;-86
2023/01/25 03:29:22;;;;;;;4.43;4.10;;;18.60;36.70;;;;;;4960912;28;20252;-86
2023/01/25 03:31:48;;;;;;;4.03;3.73;;;18.60;36.70;;;;;;4957854;28;20549;-86
2023/01/25 03:34:13;;;;;;;4.30;4.00;;;18.60;36.70;;;;;;4957871;28;20279;-87
2023/01/25 03:36:39;;;;;;;4.23;4.03;;;18.60;36.70;;;;;;4958776;28;20279;-87
2023/01/25 03:39:04;;;;;;;4.03;3.83;;;18.60;36.70;;;;;;4960664;28;20236;-91
2023/01/25 03:41:30;;;;;;;4.00;3.80;;;18.60;36.70;;;;;;4958705;28;20633;-87
2023/01/25 03:43:55;;;;;;;3.70;3.50;;;18.60;36.70;;;;;;4962333;28;20607;-86
2023/01/25 03:46:21;;;;;;;3.77;3.57;;;18.60;36.70;;;;;;4958567;28;20228;-86
2023/01/25 03:48:46;;;;;;;3.73;3.53;;;18.60;36.70;;;;;;4957667;28;20233;-88
2023/01/25 03:51:12;;;;;;;3.80;3.50;;;18.60;36.70;;;;;;4958970;28;20256;-91
2023/01/25 03:53:37;;;;;;;3.90;3.70;;;18.60;36.70;;;;;;4958996;28;20243;-90
2023/01/25 03:56:07;;;;;;;3.53;3.33;;;18.60;36.80;;;;;;4957336;28;20232;-88
2023/01/25 03:58:33;;;;;;;3.97;3.77;;;18.60;36.70;;;;;;4953055;28;20244;-87
2023/01/25 04:01:00;;;;;;;3.80;3.60;;;18.60;36.70;;;;;;4955088;28;20453;-91
2023/01/25 04:03:26;;;;;;;4.27;4.03;;;18.60;36.70;;;;;;4956296;28;20526;-89
2023/01/25 04:05:53;;;;;;;3.20;3.00;;;18.60;36.80;;;;;;4942962;28;20425;-86
2023/01/25 04:08:23;;;;;;;3.70;3.50;;;18.60;36.70;;;;;;4949506;28;20476;-87
2023/01/25 04:10:51;;;;;;;3.50;3.30;;;18.60;36.70;;;;;;4958322;28;20441;-87
2023/01/25 04:13:16;;;;;;;3.50;3.30;;;18.60;37.40;;;;;;4956754;28;20465;-86
2023/01/25 04:15:42;;;;;;;3.83;3.63;;;18.60;36.70;;;;;;4948583;28;20445;-86
2023/01/25 04:18:07;;;;;;;3.77;3.57;;;18.60;36.70;;;;;;4948294;28;20248;-88
2023/01/25 04:20:33;;;;;;;3.77;3.57;;;18.60;37.40;;;;;;4931671;28;20225;-86
2023/01/25 04:22:58;;;;;;;3.90;3.70;;;18.60;36.70;;;;;;4957178;28;20229;-87
2023/01/25 04:25:24;;;;;;;3.77;3.57;;;18.60;36.70;;;;;;4947218;28;20351;-90
2023/01/25 04:27:50;;;;;;;4.33;4.13;;;18.60;36.70;;;;;;4943533;28;21179;-87
2023/01/25 04:30:16;;;;;;;4.37;4.07;;;18.60;36.60;;;;;;4936818;28;21170;-86
2023/01/25 04:32:41;;;;;;;3.70;3.50;;;18.60;36.60;;;;;;4950939;28;20662;-86
2023/01/25 04:35:07;;;;;;;4.40;4.20;;;18.60;36.70;;;;;;4958006;28;20300;-87
2023/01/25 04:37:33;;;;;;;4.43;4.13;;;18.60;36.60;;;;;;4954339;28;20233;-88
2023/01/25 04:39:58;;;;;;;4.70;4.30;;;18.60;36.60;;;;;;4943423;28;20221;-92
2023/01/25 04:42:24;;;;;;;3.97;3.77;;;18.60;36.60;;;;;;4943661;28;20356;-88
2023/01/25 04:44:49;;;;;;;4.13;3.93;;;18.60;36.60;;;;;;4943301;28;20712;-86
2023/01/25 04:47:15;;;;;;;3.87;3.67;;;18.60;36.60;;;;;;4961512;28;20216;-86
2023/01/25 04:49:40;;;;;;;3.90;3.70;;;18.60;36.60;;;;;;4961628;28;20232;-86
2023/01/25 04:52:06;;;;;;;4.07;3.87;;;18.60;36.60;;;;;;4933696;28;20233;-93
2023/01/25 04:54:31;;;;;;;4.27;3.97;;;18.60;36.60;;;;;;4952389;28;20224;-86
2023/01/25 04:56:57;;;;;;;3.70;3.50;;;18.60;36.60;;;;;;4952331;28;20222;-86
2023/01/25 04:59:23;;;;;;;4.10;3.90;;;18.60;36.50;;;;;;4950651;28;20230;-86
2023/01/25 05:01:48;;;;;;;4.40;4.10;;;18.60;36.50;;;;;;4946269;28;20971;-87
2023/01/25 05:04:14;;;;;;;4.63;4.33;;;18.60;36.50;;;;;;4961148;28;20225;-91
2023/01/25 05:06:40;;;;;;;4.30;4.10;;;18.70;36.60;;;;;;4960507;28;20267;-87
2023/01/25 05:09:05;;;;;;;3.90;3.60;;;18.70;36.50;;;;;;4958754;28;20236;-86
2023/01/25 05:11:31;;;;;;;3.67;3.47;;;18.70;36.50;;;;;;4946705;28;20233;-87
2023/01/25 05:13:56;;;;;;;4.50;4.27;;;18.70;36.50;;;;;;4962250;28;20228;-88
2023/01/25 05:16:22;;;;;;;4.30;4.10;;;18.70;36.40;;;;;;4944078;28;20217;-86
2023/01/25 05:18:47;;;;;;;4.30;4.10;;;18.70;36.30;;;;;;4961845;28;20376;-86
2023/01/25 05:23:57;;;;;;;4.00;3.73;;;18.80;36.30;;;;;;4961448;28;20707;-89
2023/01/25 05:29:10;;;;;;;3.60;3.40;;;18.80;36.30;;;;;;4958652;28;20228;-89
2023/01/25 05:31:36;;;;;;;4.00;3.80;;;18.80;36.20;;;;;;4956666;28;20538;-86
2023/01/25 05:34:01;;;;;;;4.40;4.20;;;18.80;36.20;;;;;;4949358;28;20521;-88
2023/01/25 05:36:27;;;;;;;4.40;4.10;;;18.80;36.20;;;;;;4955506;28;20451;-87
2023/01/25 05:38:52;;;;;;;4.63;4.20;;;18.80;36.20;;;;;;4957105;28;20862;-87
2023/01/25 05:41:18;;;;;;;3.90;3.70;;;18.80;36.40;;;;;;4946355;28;20681;-88
2023/01/25 05:43:47;;;;;;;4.57;4.30;;;18.80;36.40;;;;;;4940795;28;20271;-88
2023/01/25 05:46:13;;;;;;;4.30;4.00;;;18.90;36.30;;;;;;4951780;28;20221;-87
2023/01/25 05:48:39;;;;;;;4.17;3.77;;;18.80;36.30;;;;;;4937078;28;20589;-89
2023/01/25 05:51:04;;;;;;;4.20;4.00;;;18.80;36.30;;;;;;4948504;28;20287;-90
2023/01/25 05:53:30;;;;;;;4.43;4.17;;;18.80;36.40;;;;;;4937658;28;20847;-87
2023/01/25 05:56:03;;;;;;;7.80;4.40;;;18.80;36.30;;;;;;4937062;28;20224;-87
2023/01/25 05:58:29;;;;;;;4.10;3.90;;;18.80;36.30;;;;;;4930862;28;20253;-88
2023/01/25 06:00:54;;;;;;;4.40;4.20;;;18.80;36.40;;;;;;4946937;28;20540;-88
2023/01/25 06:03:20;;;;;;;4.10;3.90;;;18.80;36.30;;;;;;4952254;28;20244;-89
2023/01/25 06:05:46;;;;;;;4.23;3.97;;;18.80;36.30;;;;;;4922492;28;20508;-85
2023/01/25 06:08:11;;;;;;;4.03;3.83;;;18.80;36.30;;;;;;4936853;28;20248;-83
2023/01/25 06:10:37;;;;;;;4.27;4.03;;;18.80;36.30;;;;;;4940915;28;20255;-83
2023/01/25 06:13:02;;;;;;;3.73;3.53;;;18.80;36.30;;;;;;4940496;28;20229;-83
2023/01/25 06:15:28;;;;;;;5.10;4.80;;;18.80;36.30;;;;;;4947020;28;20229;-83
2023/01/25 06:17:54;;;;;;;4.37;4.00;;;18.80;36.40;;;;;;4959948;28;20240;-83
2023/01/25 06:20:20;;;;;;;4.77;4.57;;;18.80;36.30;;;;;;4955726;28;20224;-85
2023/01/25 06:22:51;;;;;;;5.47;5.17;;;18.80;36.40;;;;;;4955749;28;20542;-84
2023/01/25 06:25:17;;;;;;;4.70;4.40;;;18.80;36.30;;;;;;4958193;28;20225;-82
2023/01/25 06:27:43;;;;;;;4.77;4.43;;;18.80;36.30;;;;;;4953318;28;20570;-84
2023/01/25 06:30:09;;;;;;;4.33;4.03;;;18.80;36.30;;;;;;4954049;28;20433;-86
2023/01/25 06:32:35;;;;;;;4.97;4.67;;;18.80;36.30;;;;;;4954199;28;20554;-85
2023/01/25 06:35:01;;;;;;;4.90;4.60;;;18.80;36.30;;;;;;4954211;28;20449;-86
2023/01/25 06:37:26;;;;;;;4.40;4.10;;;18.80;36.30;;;;;;4957304;28;20876;-85
2023/01/25 06:39:52;;;;;;;4.50;4.20;;;18.80;36.40;;;;;;4952354;28;20228;-85
2023/01/25 06:42:18;;;;;;;6.63;5.07;;;18.80;36.30;;;;;;4958598;28;20217;-86
2023/01/25 06:44:44;;;;;;;4.40;4.20;;;18.80;36.30;;;;;;4957389;28;20526;-87
2023/01/25 06:47:11;;;;;;;4.60;4.30;;;18.80;36.40;;;;;;4956808;28;20446;-87
2023/01/25 06:49:37;;;;;;;5.17;4.80;;;18.80;36.40;;;;;;4955276;28;20236;-88
2023/01/25 06:52:03;;;;;;;5.07;4.67;;;18.80;36.40;;;;;;4954576;28;20446;-86
2023/01/25 06:54:28;;;;;;;5.07;4.67;;;18.80;36.30;;;;;;4958512;28;20459;-88
2023/01/25 06:56:54;;;;;;;4.80;4.50;;;18.80;36.40;;;;;;4956444;28;20454;-87
2023/01/25 06:59:20;;;;;;;5.60;5.20;;;18.80;36.30;;;;;;4935303;28;20221;-88
2023/01/25 07:01:45;;;;;;;4.90;4.60;;;18.80;36.40;;;;;;4941455;28;20282;-87
2023/01/25 07:04:11;;;;;;;4.53;4.23;;;18.80;36.40;;;;;;4923449;28;20237;-88
2023/01/25 07:06:37;;;;;;;4.97;4.57;;;18.80;36.40;;;;;;4940235;28;20236;-87
2023/01/25 07:09:05;;;;;;;5.07;4.60;;;18.80;36.40;;;;;;4936340;28;20224;-88
2023/01/25 07:11:31;;;;;;;5.10;4.80;;;18.80;36.40;;;;;;4909035;28;20402;-87
2023/01/25 07:13:57;;;;;;;5.20;4.80;;;18.80;36.40;;;;;;4896243;28;21294;-87
2023/01/25 07:16:22;;;;;;;4.70;4.30;;;18.80;36.50;;;;;;4903686;28;20263;-87
2023/01/25 07:18:48;;;;;;;6.43;4.90;;;18.80;36.40;;;;;;4932372;28;20241;-87
2023/01/25 07:21:19;;;;;;;5.00;4.60;;;18.80;36.50;;;;;;4930476;28;20225;-87
2023/01/25 07:23:45;;;;;;;6.17;5.70;;;18.80;36.40;;;;;;4946327;28;20311;-87
2023/01/25 07:26:22;;;;;;;4.70;4.40;;;18.80;36.40;;;;;;4944386;28;20434;-87
2023/01/25 07:28:49;;;;;;;5.70;5.20;;;18.80;36.50;;;;;;4945835;28;20445;-87
2023/01/25 07:31:16;;;;;;;5.90;5.40;;;18.80;36.50;;;;;;4941727;28;20490;-87
2023/01/25 07:33:41;;;;;;;4.97;4.67;;;18.80;36.50;;;;;;4925766;28;20854;-87
2023/01/25 07:36:09;;;;;;;5.77;5.23;;;18.80;36.50;;;;;;4942918;28;20538;-88
2023/01/25 07:38:35;;;;;;;5.27;4.87;;;18.80;36.50;;;;;;4945456;28;20249;-88
2023/01/25 07:41:01;;;;;;;5.27;4.90;;;18.80;36.50;;;;;;4937931;28;20437;-87
2023/01/25 07:43:28;;;;;;;5.10;4.80;;;18.80;36.50;;;;;;4947168;28;21002;-87
2023/01/25 07:46:00;;;;;;;5.20;4.90;;;18.80;36.50;;;;;;4948952;28;20451;-88
2023/01/25 07:48:25;;;;;;;5.20;4.80;;;18.80;36.50;;;;;;4939679;28;20434;-87
2023/01/25 07:51:10;;;;;;;5.40;4.97;;;18.80;36.60;;;;;;4933183;28;20442;-87
2023/01/25 07:53:39;;;;;;;5.70;5.23;;;18.80;36.60;;;;;;4924742;28;20221;-87
2023/01/25 07:56:06;;;;;;;4.77;4.40;;;18.80;36.50;;;;;;4946961;28;20461;-88
2023/01/25 07:58:32;;;;;;;5.33;4.93;;;18.80;36.50;;;;;;4951526;28;22907;-86
2023/01/25 08:01:04;;;;;;;5.90;5.17;;;18.70;36.50;;;;;;4936175;28;21213;-87
2023/01/25 08:03:29;;;;;;;5.10;4.70;;;18.70;36.50;;;;;;4954337;28;20220;-87
2023/01/25 08:05:55;;;;;;;5.43;4.93;;;18.70;36.50;;;;;;4952469;28;21009;-88
2023/01/25 08:08:21;;;;;;;4.87;4.50;;;18.70;36.50;;;;;;4959437;28;20287;-87
2023/01/25 08:10:46;;;;;;;5.30;4.90;;;18.70;36.60;;;;;;4941486;28;20479;-87
2023/01/25 08:13:12;;;;;;;5.50;5.00;;;18.70;36.50;;;;;;4936850;28;20272;-87
2023/01/25 08:15:38;;;;;;;5.77;5.27;;;18.70;36.50;;;;;;4934919;28;20226;-87
2023/01/25 08:18:03;;;;;;;6.07;5.67;;;18.70;36.50;;;;;;4947063;28;20307;-87
2023/01/25 08:20:29;;;;;;;5.70;5.30;;;18.70;36.50;;;;;;4944496;28;20993;-87
2023/01/25 08:22:54;;;;;;;5.37;4.90;;;18.70;36.50;;;;;;4941949;28;20225;-87
2023/01/25 08:25:20;;;;;;;6.67;6.17;;;18.70;36.60;;;;;;4961091;28;20317;-87
2023/01/25 08:27:46;;;;;;;5.83;5.43;;;18.70;36.50;;;;;;4948585;28;20229;-87
2023/01/25 08:30:11;;;;;;;5.27;4.87;;;18.80;36.60;;;;;;4937261;28;20221;-87
2023/01/25 08:32:38;;;;;;;5.77;5.37;;;18.70;36.60;;;;;;4959952;28;20216;-86
2023/01/25 08:35:04;;;;;;;5.47;5.17;;;18.70;36.60;;;;;;4959194;28;20240;-87
2023/01/25 08:37:29;;;;;;;4.80;4.50;;;18.70;36.50;;;;;;4959296;28;20922;-87
2023/01/25 08:39:58;;;;;;;6.23;5.80;;;18.70;36.50;;;;;;4959907;28;20550;-87
2023/01/25 08:42:24;;;;;;;5.53;5.13;;;18.70;36.60;;;;;;4943614;28;20378;-87
2023/01/25 08:44:50;;;;;;;5.10;4.70;;;18.70;36.50;;;;;;4955156;28;21131;-87
2023/01/25 08:47:16;;;;;;;6.73;5.63;;;18.70;36.60;;;;;;4961745;28;20631;-87
2023/01/25 08:49:41;;;;;;;5.70;5.30;;;18.70;36.50;;;;;;4958854;28;20290;-87
2023/01/25 08:52:07;;;;;;;5.73;5.23;;;18.70;36.50;;;;;;4959562;28;20221;-87
2023/01/25 08:54:32;;;;;;;6.30;5.80;;;18.70;36.50;;;;;;4952184;28;20228;-87
2023/01/25 08:56:59;;;;;;;6.03;5.53;;;18.70;37.30;;;;;;4961147;28;20668;-87
2023/01/25 08:59:25;;;;;;;5.63;5.23;;;18.70;36.50;;;;;;4958790;28;20256;-87
2023/01/25 09:01:50;;;;;;;5.53;5.03;;;18.70;36.50;;;;;;4959821;28;20614;-86
2023/01/25 09:04:16;;;;;;;4.90;4.50;;;18.70;36.50;;;;;;4959540;28;20239;-86
2023/01/25 09:06:42;;;;;;;5.23;4.90;;;18.70;36.50;;;;;;4956025;28;20276;-87
2023/01/25 09:09:07;;;;;;;5.40;5.00;;;18.70;36.60;;;;;;4960217;28;20284;-87
2023/01/25 09:11:35;;;;;;;5.87;5.37;;;18.70;36.50;;;;;;4955905;28;20218;-87
2023/01/25 09:14:01;;;;;;;6.03;5.43;;;18.70;36.50;;;;;;4960502;28;20243;-86
2023/01/25 09:16:27;;;;;;;6.30;5.83;;;18.70;36.60;;;;;;4956924;28;21235;-87
2023/01/25 09:18:55;;;;;;;5.80;5.30;;;18.70;36.50;;;;;;4960169;28;20539;-87
2023/01/25 09:21:21;;;;;;;6.17;5.70;;;18.70;36.50;;;;;;4959370;28;20463;-87
2023/01/25 09:23:48;;;;;;;6.00;5.50;;;18.70;36.50;;;;;;4955807;28;20787;-86
2023/01/25 09:26:14;;;;;;;5.30;4.90;;;18.70;36.50;;;;;;4952359;28;21056;-87
2023/01/25 09:28:41;;;;;;;6.37;5.90;;;18.70;36.50;;;;;;4957031;28;20445;-86
2023/01/25 09:31:07;;;;;;;6.10;5.70;;;18.70;36.50;;;;;;4957971;28;20819;-86
2023/01/25 09:33:36;;;;;;;6.77;6.20;;;18.70;36.50;;;;;;4949425;28;21746;-88
2023/01/25 09:36:02;;;;;;;6.67;5.97;;;18.70;36.50;;;;;;4950902;28;21048;-87
2023/01/25 09:38:28;;;;;;;6.13;5.73;;;18.70;36.50;;;;;;4961106;28;20483;-87
2023/01/25 09:41:03;;;;;;;6.23;5.73;;;18.70;36.50;;;;;;4956878;28;20432;-86
2023/01/25 09:43:59;;;;;;;5.97;5.57;;;18.70;36.40;;;;;;4949516;28;20224;-87
2023/01/25 09:46:49;;;;;;;6.27;5.67;;;18.70;36.40;;;;;;4937090;28;20476;-86
2023/01/25 09:49:29;;;;;;;6.67;5.90;;;18.70;36.40;;;;;;4932314;28;20908;-87
2023/01/25 09:52:16;;;;;;;5.83;5.33;;;18.70;36.50;;;;;;4944155;28;20510;-87
2023/01/25 09:54:44;;;;;;;6.50;6.00;;;18.70;36.50;;;;;;4948070;28;20498;-86
2023/01/25 09:57:18;;;;;;;6.50;6.00;;;18.70;36.50;;;;;;4938156;28;20426;-88
2023/01/25 09:59:47;;;;;;;5.80;5.40;;;18.70;36.50;;;;;;4939635;28;20492;-88
2023/01/25 10:02:33;;;;;;;6.73;6.23;;;18.70;36.50;;;;;;4950243;28;20466;-87
2023/01/25 10:05:20;;;;;;;5.30;4.90;;;18.70;36.50;;;;;;4934289;28;20455;-88
2023/01/25 10:08:02;;;;;;;7.03;5.60;;;18.70;36.40;;;;;;4935727;28;20558;-86
2023/01/25 10:10:40;;;;;;;7.43;6.73;;;18.70;36.50;;;;;;4935575;28;20494;-88
2023/01/25 10:13:11;;;;;;;6.30;5.80;;;18.70;36.50;;;;;;4942805;28;20426;-86
2023/01/25 10:15:41;;;;;;;6.43;5.93;;;18.70;36.50;;;;;;4930857;28;21387;-89
2023/01/25 10:18:21;;;;;;;5.97;5.47;;;18.70;36.40;;;;;;4942662;28;20471;-86
2023/01/25 10:20:56;;;;;;;5.40;5.00;;;18.70;36.50;;;;;;4935960;28;20548;-88
2023/01/25 10:23:36;;;;;;;6.80;6.13;;;18.70;36.50;;;;;;4943002;28;20430;-87
2023/01/25 10:26:31;;;;;;;6.10;5.70;;;18.70;36.50;;;;;;4946382;28;21578;-87
2023/01/25 10:29:06;;;;;;;8.53;7.57;;;18.70;36.50;;;;;;4946491;28;20462;-86
2023/01/25 10:31:43;;;;;;;6.60;6.10;;;18.70;36.50;;;;;;4950557;28;20466;-87
2023/01/25 10:34:18;;;;;;;6.43;5.93;;;18.70;36.50;;;;;;4948976;28;20509;-88
2023/01/25 10:36:47;;;;;;;6.23;5.73;;;18.70;36.50;;;;;;4939190;28;20463;-87
2023/01/25 10:39:12;;;;;;;6.97;6.47;;;18.70;36.50;;;;;;4940574;28;20442;-88
2023/01/25 10:41:41;;;;;;;6.30;5.80;;;18.70;36.40;;;;;;4941578;28;20470;-87
2023/01/25 10:44:23;;;;;;;6.93;6.43;;;18.70;36.40;;;;;;4940680;28;21002;-87
2023/01/25 10:46:59;;;;;;;6.23;5.80;;;18.70;36.40;;;;;;4954982;28;20421;-87
2023/01/25 10:49:47;;;;;;;7.17;6.57;;;18.70;36.50;;;;;;4955016;28;20509;-87
2023/01/25 10:52:17;;;;;;;8.47;7.60;;;18.70;36.40;;;;;;4954265;28;20505;-87
2023/01/25 10:54:42;;;;;;;7.07;6.57;;;18.70;36.50;;;;;;4950293;28;20992;-88
2023/01/25 10:57:15;;;;;;;7.83;6.13;;;18.70;36.40;;;;;;4945458;28;20474;-86
2023/01/25 10:59:48;;;;;;;6.70;6.30;;;18.70;36.50;;;;;;4960188;28;20490;-87
2023/01/25 11:02:42;;;;;;;7.17;6.47;;;18.70;36.50;;;;;;4931749;28;20947;-87
2023/01/25 11:05:17;;;;;;;6.33;5.83;;;18.70;36.40;;;;;;4954893;28;20470;-87
2023/01/25 11:07:43;;;;;;;7.20;6.50;;;18.70;36.50;;;;;;4950315;28;21433;-87
2023/01/25 11:10:30;;;;;;;7.47;6.83;;;18.70;36.40;;;;;;4955506;28;20454;-88
2023/01/25 11:13:14;;;;;;;7.13;6.43;;;18.70;36.30;;;;;;4945553;28;20451;-88
2023/01/25 11:15:43;;;;;;;6.63;6.03;;;18.70;36.30;;;;;;4944756;28;20452;-87
2023/01/25 11:18:25;;;;;;;7.80;7.00;;;18.60;36.30;;;;;;4959964;28;20478;-90
2023/01/25 11:21:18;;;;;;;6.47;5.93;;;18.70;36.30;;;;;;4949871;28;20487;-92
2023/01/25 11:24:01;;;;;;;7.90;6.53;;;18.70;36.30;;;;;;4939609;28;20817;-85
2023/01/25 11:26:27;;;;;;;7.63;6.93;;;18.60;36.20;;;;;;4957506;28;20463;-85
2023/01/25 11:29:11;;;;;;;7.43;6.73;;;18.60;36.30;;;;;;4946477;28;20436;-85
2023/01/25 11:31:40;;;;;;;7.30;6.70;;;18.70;36.30;;;;;;4946824;28;20432;-85
2023/01/25 11:34:09;;;;;;;7.63;6.50;;;18.60;36.30;;;;;;4943597;28;20502;-85
2023/01/25 11:36:43;;;;;;;7.33;6.50;;;18.70;36.30;;;;;;4939501;28;20479;-85
2023/01/25 11:39:18;;;;;;;7.37;6.67;;;18.70;36.30;;;;;;4941515;28;20558;-85
2023/01/25 11:42:10;;;;;;;7.27;6.57;;;18.70;36.30;;;;;;4945692;28;21010;-86
2023/01/25 11:44:41;;;;;;;7.70;6.93;;;18.70;36.30;;;;;;4952508;28;20937;-85
2023/01/25 11:47:25;;;;;;;6.20;5.70;;;18.70;36.30;;;;;;4955510;28;20437;-85
2023/01/25 11:49:57;;;;;;;6.60;6.00;;;18.60;36.20;;;;;;4957331;28;20462;-86
2023/01/25 11:52:34;;;;;;;6.57;6.07;;;18.60;36.20;;;;;;4939248;28;20472;-86
2023/01/25 11:55:24;;;;;;;7.23;6.53;;;18.60;36.20;;;;;;4956340;28;20425;-86
2023/01/25 11:58:02;;;;;;;6.60;6.10;;;18.60;36.20;;;;;;4945210;28;20459;-86
2023/01/25 12:00:48;;;;;;;8.03;7.20;;;18.60;36.20;;;;;;4938945;28;20432;-86
2023/01/25 12:03:35;;;;;;;7.93;7.23;;;18.60;36.20;;;;;;4957687;28;20459;-85
2023/01/25 12:06:38;;;;;;;6.63;6.13;;;18.60;36.10;;;;;;4942688;28;20478;-86
2023/01/25 12:09:19;;;;;;;7.53;6.93;;;18.60;36.20;;;;;;4937254;28;20479;-86
2023/01/25 12:12:01;;;;;;;7.40;6.70;;;18.60;36.20;;;;;;4949123;28;20514;-85
2023/01/25 12:14:45;;;;;;;6.60;6.10;;;18.60;36.20;;;;;;4960453;28;20434;-86
2023/01/25 12:17:16;;;;;;;6.40;5.80;;;18.60;36.20;;;;;;4957533;28;21411;-85
2023/01/25 12:20:16;;;;;;;7.30;6.60;;;18.60;36.30;;;;;;4962532;28;20460;-85
2023/01/25 12:23:14;;;;;;;6.77;6.23;;;18.60;36.20;;;;;;4948326;28;20974;-86
2023/01/25 12:25:50;;;;;;;7.13;6.60;;;18.60;36.20;;;;;;4946223;28;20849;-85
2023/01/25 12:28:20;;;;;;;7.53;6.30;;;18.60;36.20;;;;;;4942509;28;20572;-87
2023/01/25 12:30:54;;;;;;;7.70;7.03;;;18.60;36.20;;;;;;4944030;28;20433;-85
2023/01/25 12:33:50;;;;;;;7.70;7.00;;;18.60;36.20;;;;;;4945409;28;20429;-86
2023/01/25 12:36:41;;;;;;;6.80;6.20;;;18.60;36.20;;;;;;4937248;28;20517;-87
2023/01/25 12:39:23;;;;;;;7.17;6.47;;;18.60;36.20;;;;;;4941179;28;20480;-86
2023/01/25 12:42:16;;;;;;;6.57;5.93;;;18.60;36.20;;;;;;4943378;28;20521;-85
2023/01/25 12:44:48;;;;;;;6.83;6.23;;;18.60;36.20;;;;;;4935905;28;20775;-85
2023/01/25 12:47:24;;;;;;;7.53;6.83;;;18.60;36.30;;;;;;4928666;28;20479;-86
2023/01/25 12:50:07;;;;;;;6.97;6.37;;;18.60;36.30;;;;;;4928623;28;21030;-85
2023/01/25 12:52:37;;;;;;;7.10;6.50;;;18.60;36.30;;;;;;4934377;28;20694;-85
2023/01/25 12:55:06;;;;;;;37.83;7.97;;;18.60;36.30;;;;;;4939395;28;20813;-85
2023/01/25 12:57:55;;;;;;;6.83;6.33;;;18.60;36.30;;;;;;4923801;28;20468;-85
2023/01/25 13:00:44;;;;;;;6.87;6.30;;;18.60;36.20;;;;;;4932717;28;20462;-85
2023/01/25 13:03:37;;;;;;;6.80;6.30;;;18.60;36.30;;;;;;4938263;28;20462;-87
2023/01/25 13:06:08;;;;;;;6.77;6.23;;;18.60;36.20;;;;;;4929346;28;20462;-86
2023/01/25 13:08:37;;;;;;;8.17;7.40;;;18.60;36.30;;;;;;4921417;28;20558;-85